sensor_id;sensor_type;location;lat;lon;timestamp;P1;durP1;ratioP1;P2;durP2;ratioP2
68484;SDS011;55472;50.060;21.960;2023-01-29T00:01:53;18.02;;;5.32;;
68484;SDS011;55472;50.060;21.960;2023-01-29T00:04:20;19.03;;;6.13;;
68484;SDS011;55472;50.060;21.960;2023-01-29T00:06:47;22.08;;;6.18;;
68484;SDS011;55472;50.060;21.960;2023-01-29T00:09:13;19.83;;;6.30;;
68484;SDS011;55472;50.060;21.960;2023-01-29T00:11:39;20.77;;;6.68;;
68484;SDS011;55472;50.060;21.960;2023-01-29T00:14:06;23.42;;;6.72;;
68484;SDS011;55472;50.060;21.960;2023-01-29T00:16:32;17.70;;;5.87;;
68484;SDS011;55472;50.060;21.960;2023-01-29T00:19:02;18.85;;;5.82;;
68484;SDS011;55472;50.060;21.960;2023-01-29T00:21:28;16.95;;;5.45;;
68484;SDS011;55472;50.060;21.960;2023-01-29T00:23:56;14.07;;;4.68;;
68484;SDS011;55472;50.060;21.960;2023-01-29T00:26:24;18.27;;;5.07;;
68484;SDS011;55472;50.060;21.960;2023-01-29T00:28:51;15.33;;;5.13;;
68484;SDS011;55472;50.060;21.960;2023-01-29T00:31:19;16.00;;;5.25;;
68484;SDS011;55472;50.060;21.960;2023-01-29T00:33:48;17.60;;;5.15;;
68484;SDS011;55472;50.060;21.960;2023-01-29T00:36:15;14.27;;;4.63;;
68484;SDS011;55472;50.060;21.960;2023-01-29T00:38:45;12.27;;;4.07;;
68484;SDS011;55472;50.060;21.960;2023-01-29T00:41:19;14.83;;;4.50;;
68484;SDS011;55472;50.060;21.960;2023-01-29T00:44:04;15.02;;;5.30;;
68484;SDS011;55472;50.060;21.960;2023-01-29T00:46:52;13.25;;;4.50;;
68484;SDS011;55472;50.060;21.960;2023-01-29T00:49:19;12.73;;;4.15;;
68484;SDS011;55472;50.060;21.960;2023-01-29T00:51:45;17.58;;;4.82;;
68484;SDS011;55472;50.060;21.960;2023-01-29T00:54:34;13.27;;;4.17;;
68484;SDS011;55472;50.060;21.960;2023-01-29T00:57:01;13.38;;;4.60;;
68484;SDS011;55472;50.060;21.960;2023-01-29T00:59:28;14.57;;;5.15;;
68484;SDS011;55472;50.060;21.960;2023-01-29T01:01:54;14.07;;;4.40;;
68484;SDS011;55472;50.060;21.960;2023-01-29T01:04:40;16.17;;;4.45;;
68484;SDS011;55472;50.060;21.960;2023-01-29T01:07:06;14.37;;;4.57;;
68484;SDS011;55472;50.060;21.960;2023-01-29T01:09:36;16.00;;;4.63;;
68484;SDS011;55472;50.060;21.960;2023-01-29T01:12:25;14.02;;;4.40;;
68484;SDS011;55472;50.060;21.960;2023-01-29T01:14:52;14.45;;;4.63;;
68484;SDS011;55472;50.060;21.960;2023-01-29T01:17:18;15.05;;;4.93;;
68484;SDS011;55472;50.060;21.960;2023-01-29T01:19:45;19.33;;;5.70;;
68484;SDS011;55472;50.060;21.960;2023-01-29T01:22:11;17.23;;;5.32;;
68484;SDS011;55472;50.060;21.960;2023-01-29T01:24:37;15.77;;;5.05;;
68484;SDS011;55472;50.060;21.960;2023-01-29T01:27:04;17.13;;;5.53;;
68484;SDS011;55472;50.060;21.960;2023-01-29T01:29:31;17.80;;;5.78;;
68484;SDS011;55472;50.060;21.960;2023-01-29T01:31:57;18.03;;;4.97;;
68484;SDS011;55472;50.060;21.960;2023-01-29T01:34:24;15.77;;;5.18;;
68484;SDS011;55472;50.060;21.960;2023-01-29T01:36:51;17.40;;;4.70;;
68484;SDS011;55472;50.060;21.960;2023-01-29T01:39:20;13.32;;;4.85;;
68484;SDS011;55472;50.060;21.960;2023-01-29T01:41:47;14.57;;;4.32;;
68484;SDS011;55472;50.060;21.960;2023-01-29T01:47:26;14.73;;;5.47;;
68484;SDS011;55472;50.060;21.960;2023-01-29T01:50:02;16.67;;;4.47;;
68484;SDS011;55472;50.060;21.960;2023-01-29T01:52:34;20.70;;;4.95;;
68484;SDS011;55472;50.060;21.960;2023-01-29T01:55:06;13.85;;;4.45;;
68484;SDS011;55472;50.060;21.960;2023-01-29T01:57:37;14.97;;;4.40;;
68484;SDS011;55472;50.060;21.960;2023-01-29T02:00:06;17.65;;;5.47;;
68484;SDS011;55472;50.060;21.960;2023-01-29T02:02:37;15.73;;;4.93;;
68484;SDS011;55472;50.060;21.960;2023-01-29T02:05:24;14.73;;;4.60;;
68484;SDS011;55472;50.060;21.960;2023-01-29T02:08:10;13.23;;;5.00;;
68484;SDS011;55472;50.060;21.960;2023-01-29T02:10:55;12.47;;;4.00;;
68484;SDS011;55472;50.060;21.960;2023-01-29T02:13:22;14.20;;;4.68;;
68484;SDS011;55472;50.060;21.960;2023-01-29T02:15:49;20.90;;;5.70;;
68484;SDS011;55472;50.060;21.960;2023-01-29T02:18:15;16.00;;;4.93;;
68484;SDS011;55472;50.060;21.960;2023-01-29T02:24:32;16.87;;;4.93;;
68484;SDS011;55472;50.060;21.960;2023-01-29T02:27:45;16.92;;;5.13;;
68484;SDS011;55472;50.060;21.960;2023-01-29T02:35:31;12.35;;;4.35;;
68484;SDS011;55472;50.060;21.960;2023-01-29T02:41:07;14.43;;;5.10;;
68484;SDS011;55472;50.060;21.960;2023-01-29T02:44:04;13.82;;;4.53;;
68484;SDS011;55472;50.060;21.960;2023-01-29T02:47:09;13.55;;;5.07;;
68484;SDS011;55472;50.060;21.960;2023-01-29T02:52:40;15.00;;;4.93;;
68484;SDS011;55472;50.060;21.960;2023-01-29T02:55:29;13.40;;;4.40;;
68484;SDS011;55472;50.060;21.960;2023-01-29T02:58:10;12.75;;;4.32;;
68484;SDS011;55472;50.060;21.960;2023-01-29T03:00:45;16.17;;;4.45;;
68484;SDS011;55472;50.060;21.960;2023-01-29T03:03:17;13.27;;;3.83;;
68484;SDS011;55472;50.060;21.960;2023-01-29T03:06:00;15.87;;;4.23;;
68484;SDS011;55472;50.060;21.960;2023-01-29T03:08:58;13.45;;;3.78;;
68484;SDS011;55472;50.060;21.960;2023-01-29T03:11:35;14.25;;;3.63;;
68484;SDS011;55472;50.060;21.960;2023-01-29T03:14:17;10.77;;;3.10;;
68484;SDS011;55472;50.060;21.960;2023-01-29T03:17:17;12.40;;;3.55;;
68484;SDS011;55472;50.060;21.960;2023-01-29T03:19:47;13.07;;;4.17;;
68484;SDS011;55472;50.060;21.960;2023-01-29T03:22:14;13.50;;;4.68;;
68484;SDS011;55472;50.060;21.960;2023-01-29T03:24:44;13.05;;;4.13;;
68484;SDS011;55472;50.060;21.960;2023-01-29T03:27:36;14.70;;;4.20;;
68484;SDS011;55472;50.060;21.960;2023-01-29T03:30:34;14.93;;;4.40;;
68484;SDS011;55472;50.060;21.960;2023-01-29T03:33:25;12.13;;;3.93;;
68484;SDS011;55472;50.060;21.960;2023-01-29T03:36:07;12.85;;;4.93;;
68484;SDS011;55472;50.060;21.960;2023-01-29T03:38:38;14.38;;;3.83;;
68484;SDS011;55472;50.060;21.960;2023-01-29T03:41:07;14.50;;;4.63;;
68484;SDS011;55472;50.060;21.960;2023-01-29T03:52:19;11.93;;;4.13;;
68484;SDS011;55472;50.060;21.960;2023-01-29T03:55:16;13.10;;;4.18;;
68484;SDS011;55472;50.060;21.960;2023-01-29T03:58:29;10.85;;;3.67;;
68484;SDS011;55472;50.060;21.960;2023-01-29T04:01:13;12.20;;;3.50;;
68484;SDS011;55472;50.060;21.960;2023-01-29T04:03:49;11.32;;;3.72;;
68484;SDS011;55472;50.060;21.960;2023-01-29T04:06:25;12.88;;;3.58;;
68484;SDS011;55472;50.060;21.960;2023-01-29T04:08:58;11.93;;;3.63;;
68484;SDS011;55472;50.060;21.960;2023-01-29T04:11:30;11.18;;;3.40;;
68484;SDS011;55472;50.060;21.960;2023-01-29T04:14:02;11.77;;;4.00;;
68484;SDS011;55472;50.060;21.960;2023-01-29T04:16:33;13.27;;;3.53;;
68484;SDS011;55472;50.060;21.960;2023-01-29T04:19:03;10.80;;;3.78;;
68484;SDS011;55472;50.060;21.960;2023-01-29T04:21:30;10.88;;;3.40;;
68484;SDS011;55472;50.060;21.960;2023-01-29T04:23:57;10.85;;;4.00;;
68484;SDS011;55472;50.060;21.960;2023-01-29T04:37:36;9.55;;;3.47;;
68484;SDS011;55472;50.060;21.960;2023-01-29T04:59:57;12.63;;;4.30;;
68484;SDS011;55472;50.060;21.960;2023-01-29T05:02:39;13.18;;;4.78;;
68484;SDS011;55472;50.060;21.960;2023-01-29T05:05:08;16.80;;;6.40;;
68484;SDS011;55472;50.060;21.960;2023-01-29T05:07:36;16.77;;;6.20;;
68484;SDS011;55472;50.060;21.960;2023-01-29T05:10:04;24.38;;;9.45;;
68484;SDS011;55472;50.060;21.960;2023-01-29T05:12:33;30.92;;;13.75;;
68484;SDS011;55472;50.060;21.960;2023-01-29T05:15:02;22.95;;;11.32;;
68484;SDS011;55472;50.060;21.960;2023-01-29T05:17:34;20.05;;;8.25;;
68484;SDS011;55472;50.060;21.960;2023-01-29T05:20:00;18.70;;;6.47;;
68484;SDS011;55472;50.060;21.960;2023-01-29T05:22:26;13.57;;;5.10;;
68484;SDS011;55472;50.060;21.960;2023-01-29T05:24:53;14.18;;;4.60;;
68484;SDS011;55472;50.060;21.960;2023-01-29T05:27:21;15.65;;;5.05;;
68484;SDS011;55472;50.060;21.960;2023-01-29T05:30:14;16.73;;;4.85;;
68484;SDS011;55472;50.060;21.960;2023-01-29T05:32:41;13.87;;;5.00;;
68484;SDS011;55472;50.060;21.960;2023-01-29T05:35:07;17.42;;;6.10;;
68484;SDS011;55472;50.060;21.960;2023-01-29T05:37:33;19.90;;;5.82;;
68484;SDS011;55472;50.060;21.960;2023-01-29T05:40:00;18.63;;;5.95;;
68484;SDS011;55472;50.060;21.960;2023-01-29T05:42:26;19.25;;;5.63;;
68484;SDS011;55472;50.060;21.960;2023-01-29T05:44:52;21.00;;;6.33;;
68484;SDS011;55472;50.060;21.960;2023-01-29T05:47:19;26.88;;;8.10;;
68484;SDS011;55472;50.060;21.960;2023-01-29T05:49:45;26.02;;;7.75;;
68484;SDS011;55472;50.060;21.960;2023-01-29T05:52:11;21.75;;;6.40;;
68484;SDS011;55472;50.060;21.960;2023-01-29T05:54:37;18.17;;;5.63;;
68484;SDS011;55472;50.060;21.960;2023-01-29T05:57:03;14.90;;;4.90;;
68484;SDS011;55472;50.060;21.960;2023-01-29T05:59:30;16.83;;;5.55;;
68484;SDS011;55472;50.060;21.960;2023-01-29T06:01:56;16.35;;;5.40;;
68484;SDS011;55472;50.060;21.960;2023-01-29T06:04:22;14.88;;;5.20;;
68484;SDS011;55472;50.060;21.960;2023-01-29T06:06:48;16.30;;;5.55;;
68484;SDS011;55472;50.060;21.960;2023-01-29T06:09:15;21.23;;;5.93;;
68484;SDS011;55472;50.060;21.960;2023-01-29T06:11:41;14.15;;;4.93;;
68484;SDS011;55472;50.060;21.960;2023-01-29T06:14:07;14.98;;;5.15;;
68484;SDS011;55472;50.060;21.960;2023-01-29T06:16:33;17.65;;;6.13;;
68484;SDS011;55472;50.060;21.960;2023-01-29T06:19:00;18.52;;;5.40;;
68484;SDS011;55472;50.060;21.960;2023-01-29T06:21:26;17.97;;;5.57;;
68484;SDS011;55472;50.060;21.960;2023-01-29T06:23:52;19.27;;;6.07;;
68484;SDS011;55472;50.060;21.960;2023-01-29T06:26:18;16.23;;;5.55;;
68484;SDS011;55472;50.060;21.960;2023-01-29T06:28:47;16.02;;;5.32;;
68484;SDS011;55472;50.060;21.960;2023-01-29T06:31:14;14.02;;;4.57;;
68484;SDS011;55472;50.060;21.960;2023-01-29T06:33:40;16.90;;;5.00;;
68484;SDS011;55472;50.060;21.960;2023-01-29T06:36:07;17.70;;;6.15;;
68484;SDS011;55472;50.060;21.960;2023-01-29T06:38:33;19.35;;;6.60;;
68484;SDS011;55472;50.060;21.960;2023-01-29T06:41:06;21.40;;;7.47;;
68484;SDS011;55472;50.060;21.960;2023-01-29T06:43:35;21.42;;;7.47;;
68484;SDS011;55472;50.060;21.960;2023-01-29T06:46:01;13.93;;;5.20;;
68484;SDS011;55472;50.060;21.960;2023-01-29T06:48:28;14.02;;;5.20;;
68484;SDS011;55472;50.060;21.960;2023-01-29T06:50:55;17.27;;;5.47;;
68484;SDS011;55472;50.060;21.960;2023-01-29T06:53:31;13.73;;;4.53;;
68484;SDS011;55472;50.060;21.960;2023-01-29T06:55:59;12.05;;;4.70;;
68484;SDS011;55472;50.060;21.960;2023-01-29T06:58:26;17.30;;;5.37;;
68484;SDS011;55472;50.060;21.960;2023-01-29T07:00:52;15.07;;;4.63;;
68484;SDS011;55472;50.060;21.960;2023-01-29T07:03:18;13.85;;;4.82;;
68484;SDS011;55472;50.060;21.960;2023-01-29T07:05:51;13.65;;;5.60;;
68484;SDS011;55472;50.060;21.960;2023-01-29T07:08:18;13.77;;;4.95;;
68484;SDS011;55472;50.060;21.960;2023-01-29T07:10:47;23.40;;;6.73;;
68484;SDS011;55472;50.060;21.960;2023-01-29T07:13:14;26.55;;;9.30;;
68484;SDS011;55472;50.060;21.960;2023-01-29T07:15:41;36.13;;;11.50;;
68484;SDS011;55472;50.060;21.960;2023-01-29T07:18:08;34.65;;;10.93;;
68484;SDS011;55472;50.060;21.960;2023-01-29T07:20:38;23.35;;;9.50;;
68484;SDS011;55472;50.060;21.960;2023-01-29T07:23:08;16.93;;;5.90;;
68484;SDS011;55472;50.060;21.960;2023-01-29T07:25:39;15.30;;;5.40;;
68484;SDS011;55472;50.060;21.960;2023-01-29T07:28:06;14.65;;;5.32;;
68484;SDS011;55472;50.060;21.960;2023-01-29T07:30:32;14.13;;;5.05;;
68484;SDS011;55472;50.060;21.960;2023-01-29T07:33:00;15.38;;;5.50;;
68484;SDS011;55472;50.060;21.960;2023-01-29T07:35:31;12.63;;;5.17;;
68484;SDS011;55472;50.060;21.960;2023-01-29T07:38:01;15.90;;;4.88;;
68484;SDS011;55472;50.060;21.960;2023-01-29T07:40:27;20.33;;;6.32;;
68484;SDS011;55472;50.060;21.960;2023-01-29T07:43:00;17.35;;;6.20;;
68484;SDS011;55472;50.060;21.960;2023-01-29T07:45:30;18.13;;;6.32;;
68484;SDS011;55472;50.060;21.960;2023-01-29T07:47:57;17.60;;;6.20;;
68484;SDS011;55472;50.060;21.960;2023-01-29T07:50:24;31.17;;;11.05;;
68484;SDS011;55472;50.060;21.960;2023-01-29T07:52:54;22.05;;;7.43;;
68484;SDS011;55472;50.060;21.960;2023-01-29T07:55:21;17.73;;;6.15;;
68484;SDS011;55472;50.060;21.960;2023-01-29T07:57:55;18.02;;;6.97;;
68484;SDS011;55472;50.060;21.960;2023-01-29T08:00:23;14.27;;;5.93;;
68484;SDS011;55472;50.060;21.960;2023-01-29T08:02:50;19.35;;;6.38;;
68484;SDS011;55472;50.060;21.960;2023-01-29T08:05:17;16.55;;;6.10;;
68484;SDS011;55472;50.060;21.960;2023-01-29T08:07:43;13.90;;;5.65;;
68484;SDS011;55472;50.060;21.960;2023-01-29T08:10:09;17.50;;;6.45;;
68484;SDS011;55472;50.060;21.960;2023-01-29T08:12:39;11.97;;;5.37;;
68484;SDS011;55472;50.060;21.960;2023-01-29T08:15:05;13.85;;;5.70;;
68484;SDS011;55472;50.060;21.960;2023-01-29T08:17:32;15.75;;;6.13;;
68484;SDS011;55472;50.060;21.960;2023-01-29T08:19:58;12.38;;;5.90;;
68484;SDS011;55472;50.060;21.960;2023-01-29T08:22:24;17.45;;;5.78;;
68484;SDS011;55472;50.060;21.960;2023-01-29T08:24:50;13.97;;;5.63;;
68484;SDS011;55472;50.060;21.960;2023-01-29T08:27:17;16.38;;;5.35;;
68484;SDS011;55472;50.060;21.960;2023-01-29T08:29:43;13.38;;;5.35;;
68484;SDS011;55472;50.060;21.960;2023-01-29T08:32:09;13.35;;;5.63;;
68484;SDS011;55472;50.060;21.960;2023-01-29T08:34:35;14.00;;;5.78;;
68484;SDS011;55472;50.060;21.960;2023-01-29T08:37:01;12.43;;;5.63;;
68484;SDS011;55472;50.060;21.960;2023-01-29T08:39:28;15.32;;;5.47;;
68484;SDS011;55472;50.060;21.960;2023-01-29T08:41:54;15.95;;;5.10;;
68484;SDS011;55472;50.060;21.960;2023-01-29T08:44:23;9.55;;;3.67;;
68484;SDS011;55472;50.060;21.960;2023-01-29T08:46:52;14.70;;;4.50;;
68484;SDS011;55472;50.060;21.960;2023-01-29T08:49:19;9.87;;;3.77;;
68484;SDS011;55472;50.060;21.960;2023-01-29T08:51:45;10.13;;;3.08;;
68484;SDS011;55472;50.060;21.960;2023-01-29T08:54:11;9.15;;;2.72;;
68484;SDS011;55472;50.060;21.960;2023-01-29T08:56:38;10.20;;;3.13;;
68484;SDS011;55472;50.060;21.960;2023-01-29T08:59:04;7.25;;;2.72;;
68484;SDS011;55472;50.060;21.960;2023-01-29T09:01:30;7.77;;;2.77;;
68484;SDS011;55472;50.060;21.960;2023-01-29T09:03:56;7.13;;;2.45;;
68484;SDS011;55472;50.060;21.960;2023-01-29T09:06:22;6.97;;;2.30;;
68484;SDS011;55472;50.060;21.960;2023-01-29T09:08:48;5.45;;;1.95;;
68484;SDS011;55472;50.060;21.960;2023-01-29T09:11:15;7.03;;;2.05;;
68484;SDS011;55472;50.060;21.960;2023-01-29T09:13:41;11.53;;;3.40;;
68484;SDS011;55472;50.060;21.960;2023-01-29T09:16:07;18.13;;;4.65;;
68484;SDS011;55472;50.060;21.960;2023-01-29T09:18:34;8.80;;;2.92;;
68484;SDS011;55472;50.060;21.960;2023-01-29T09:21:00;7.10;;;1.92;;
68484;SDS011;55472;50.060;21.960;2023-01-29T09:23:27;6.13;;;1.85;;
68484;SDS011;55472;50.060;21.960;2023-01-29T09:25:55;12.77;;;4.23;;
68484;SDS011;55472;50.060;21.960;2023-01-29T09:28:21;13.43;;;4.13;;
68484;SDS011;55472;50.060;21.960;2023-01-29T09:30:48;5.47;;;2.58;;
68484;SDS011;55472;50.060;21.960;2023-01-29T09:33:14;5.22;;;1.55;;
68484;SDS011;55472;50.060;21.960;2023-01-29T09:35:41;5.32;;;2.08;;
68484;SDS011;55472;50.060;21.960;2023-01-29T09:38:10;4.80;;;2.03;;
68484;SDS011;55472;50.060;21.960;2023-01-29T09:43:17;6.97;;;2.17;;
68484;SDS011;55472;50.060;21.960;2023-01-29T09:49:00;7.38;;;2.35;;
68484;SDS011;55472;50.060;21.960;2023-01-29T09:51:35;5.03;;;2.07;;
68484;SDS011;55472;50.060;21.960;2023-01-29T09:54:22;7.03;;;2.38;;
68484;SDS011;55472;50.060;21.960;2023-01-29T09:56:55;8.35;;;3.05;;
68484;SDS011;55472;50.060;21.960;2023-01-29T09:59:23;10.65;;;3.55;;
68484;SDS011;55472;50.060;21.960;2023-01-29T10:04:47;8.83;;;2.80;;
68484;SDS011;55472;50.060;21.960;2023-01-29T10:10:54;7.10;;;2.42;;
68484;SDS011;55472;50.060;21.960;2023-01-29T10:25:38;8.70;;;3.22;;
68484;SDS011;55472;50.060;21.960;2023-01-29T10:28:16;16.75;;;5.28;;
68484;SDS011;55472;50.060;21.960;2023-01-29T10:30:48;18.55;;;6.10;;
68484;SDS011;55472;50.060;21.960;2023-01-29T10:33:27;17.27;;;5.60;;
68484;SDS011;55472;50.060;21.960;2023-01-29T10:36:02;18.65;;;5.75;;
68484;SDS011;55472;50.060;21.960;2023-01-29T10:39:01;19.25;;;6.22;;
68484;SDS011;55472;50.060;21.960;2023-01-29T10:44:30;53.08;;;16.45;;
68484;SDS011;55472;50.060;21.960;2023-01-29T10:54:07;16.73;;;6.25;;
68484;SDS011;55472;50.060;21.960;2023-01-29T11:00:12;14.65;;;5.35;;
68484;SDS011;55472;50.060;21.960;2023-01-29T11:03:01;18.40;;;6.00;;
68484;SDS011;55472;50.060;21.960;2023-01-29T11:06:03;17.02;;;5.93;;
68484;SDS011;55472;50.060;21.960;2023-01-29T11:11:33;17.83;;;5.10;;
68484;SDS011;55472;50.060;21.960;2023-01-29T11:14:09;10.18;;;4.22;;
68484;SDS011;55472;50.060;21.960;2023-01-29T11:16:43;11.83;;;4.13;;
68484;SDS011;55472;50.060;21.960;2023-01-29T11:19:12;13.85;;;4.78;;
68484;SDS011;55472;50.060;21.960;2023-01-29T11:21:54;11.73;;;5.07;;
68484;SDS011;55472;50.060;21.960;2023-01-29T11:24:28;11.18;;;4.05;;
68484;SDS011;55472;50.060;21.960;2023-01-29T11:26:56;9.10;;;3.67;;
68484;SDS011;55472;50.060;21.960;2023-01-29T11:35:05;11.65;;;4.13;;
68484;SDS011;55472;50.060;21.960;2023-01-29T11:37:47;10.07;;;4.20;;
68484;SDS011;55472;50.060;21.960;2023-01-29T11:46:05;15.93;;;5.40;;
68484;SDS011;55472;50.060;21.960;2023-01-29T11:48:43;14.98;;;5.70;;
68484;SDS011;55472;50.060;21.960;2023-01-29T11:51:53;16.52;;;6.10;;
68484;SDS011;55472;50.060;21.960;2023-01-29T11:59:58;14.27;;;4.82;;
68484;SDS011;55472;50.060;21.960;2023-01-29T12:05:26;12.00;;;4.30;;
68484;SDS011;55472;50.060;21.960;2023-01-29T12:07:53;13.35;;;4.55;;
68484;SDS011;55472;50.060;21.960;2023-01-29T12:10:37;13.93;;;4.70;;
68484;SDS011;55472;50.060;21.960;2023-01-29T12:15:35;11.63;;;4.28;;
68484;SDS011;55472;50.060;21.960;2023-01-29T12:20:57;13.02;;;3.35;;
68484;SDS011;55472;50.060;21.960;2023-01-29T12:23:39;8.80;;;3.60;;
68484;SDS011;55472;50.060;21.960;2023-01-29T12:31:43;22.55;;;7.78;;
68484;SDS011;55472;50.060;21.960;2023-01-29T12:37:20;14.77;;;3.90;;
68484;SDS011;55472;50.060;21.960;2023-01-29T12:40:12;11.80;;;3.97;;
68484;SDS011;55472;50.060;21.960;2023-01-29T12:42:42;19.50;;;7.25;;
68484;SDS011;55472;50.060;21.960;2023-01-29T12:45:17;10.55;;;3.30;;
68484;SDS011;55472;50.060;21.960;2023-01-29T12:47:47;6.75;;;2.80;;
68484;SDS011;55472;50.060;21.960;2023-01-29T12:50:27;8.53;;;3.00;;
68484;SDS011;55472;50.060;21.960;2023-01-29T12:56:24;8.80;;;3.03;;
68484;SDS011;55472;50.060;21.960;2023-01-29T12:59:03;9.70;;;3.22;;
68484;SDS011;55472;50.060;21.960;2023-01-29T13:01:41;12.60;;;3.50;;
68484;SDS011;55472;50.060;21.960;2023-01-29T13:07:13;13.52;;;3.85;;
68484;SDS011;55472;50.060;21.960;2023-01-29T13:09:50;11.88;;;3.45;;
68484;SDS011;55472;50.060;21.960;2023-01-29T13:12:22;11.70;;;4.30;;
68484;SDS011;55472;50.060;21.960;2023-01-29T13:14:54;15.40;;;4.00;;
68484;SDS011;55472;50.060;21.960;2023-01-29T13:17:27;15.03;;;4.20;;
68484;SDS011;55472;50.060;21.960;2023-01-29T13:20:25;12.77;;;4.53;;
68484;SDS011;55472;50.060;21.960;2023-01-29T13:22:55;14.02;;;4.53;;
68484;SDS011;55472;50.060;21.960;2023-01-29T13:25:29;15.48;;;4.80;;
68484;SDS011;55472;50.060;21.960;2023-01-29T13:27:55;9.63;;;3.88;;
68484;SDS011;55472;50.060;21.960;2023-01-29T13:30:23;11.17;;;3.53;;
68484;SDS011;55472;50.060;21.960;2023-01-29T13:32:58;11.00;;;3.80;;
68484;SDS011;55472;50.060;21.960;2023-01-29T13:35:41;10.63;;;3.38;;
68484;SDS011;55472;50.060;21.960;2023-01-29T13:38:21;13.77;;;4.32;;
68484;SDS011;55472;50.060;21.960;2023-01-29T13:41:04;18.02;;;4.22;;
68484;SDS011;55472;50.060;21.960;2023-01-29T13:43:34;13.30;;;4.60;;
68484;SDS011;55472;50.060;21.960;2023-01-29T13:46:06;9.82;;;3.38;;
68484;SDS011;55472;50.060;21.960;2023-01-29T13:48:40;11.27;;;3.53;;
68484;SDS011;55472;50.060;21.960;2023-01-29T13:51:12;9.88;;;3.85;;
68484;SDS011;55472;50.060;21.960;2023-01-29T13:53:51;10.63;;;3.70;;
68484;SDS011;55472;50.060;21.960;2023-01-29T13:58:58;16.38;;;4.63;;
68484;SDS011;55472;50.060;21.960;2023-01-29T14:06:50;13.00;;;4.72;;
68484;SDS011;55472;50.060;21.960;2023-01-29T14:12:03;23.73;;;8.15;;
68484;SDS011;55472;50.060;21.960;2023-01-29T14:14:57;17.23;;;6.25;;
68484;SDS011;55472;50.060;21.960;2023-01-29T14:21:06;13.73;;;4.22;;
68484;SDS011;55472;50.060;21.960;2023-01-29T14:29:21;13.32;;;4.57;;
68484;SDS011;55472;50.060;21.960;2023-01-29T14:34:48;12.38;;;4.70;;
68484;SDS011;55472;50.060;21.960;2023-01-29T14:37:20;16.87;;;5.63;;
68484;SDS011;55472;50.060;21.960;2023-01-29T14:39:56;12.13;;;3.83;;
68484;SDS011;55472;50.060;21.960;2023-01-29T14:45:37;13.43;;;5.88;;
68484;SDS011;55472;50.060;21.960;2023-01-29T14:58:33;20.15;;;7.60;;
68484;SDS011;55472;50.060;21.960;2023-01-29T15:04:11;13.40;;;5.23;;
68484;SDS011;55472;50.060;21.960;2023-01-29T15:06:58;15.88;;;5.53;;
68484;SDS011;55472;50.060;21.960;2023-01-29T15:10:20;25.40;;;7.35;;
68484;SDS011;55472;50.060;21.960;2023-01-29T15:16:01;16.25;;;4.60;;
68484;SDS011;55472;50.060;21.960;2023-01-29T15:21:11;12.43;;;5.20;;
68484;SDS011;55472;50.060;21.960;2023-01-29T15:23:41;18.08;;;5.72;;
68484;SDS011;55472;50.060;21.960;2023-01-29T15:26:09;14.13;;;5.53;;
68484;SDS011;55472;50.060;21.960;2023-01-29T15:28:42;14.07;;;5.65;;
68484;SDS011;55472;50.060;21.960;2023-01-29T15:31:11;17.03;;;5.97;;
68484;SDS011;55472;50.060;21.960;2023-01-29T15:33:41;17.02;;;6.25;;
68484;SDS011;55472;50.060;21.960;2023-01-29T15:36:32;13.65;;;4.95;;
68484;SDS011;55472;50.060;21.960;2023-01-29T15:41:47;19.30;;;6.22;;
68484;SDS011;55472;50.060;21.960;2023-01-29T15:44:17;15.57;;;5.57;;
68484;SDS011;55472;50.060;21.960;2023-01-29T15:46:51;17.27;;;5.45;;
68484;SDS011;55472;50.060;21.960;2023-01-29T15:51:59;19.60;;;5.97;;
68484;SDS011;55472;50.060;21.960;2023-01-29T15:54:31;21.85;;;6.95;;
68484;SDS011;55472;50.060;21.960;2023-01-29T15:56:59;18.40;;;6.70;;
68484;SDS011;55472;50.060;21.960;2023-01-29T15:59:34;17.13;;;6.15;;
68484;SDS011;55472;50.060;21.960;2023-01-29T16:04:59;19.73;;;6.03;;
68484;SDS011;55472;50.060;21.960;2023-01-29T16:07:27;26.15;;;7.32;;
68484;SDS011;55472;50.060;21.960;2023-01-29T16:09:54;19.77;;;7.10;;
68484;SDS011;55472;50.060;21.960;2023-01-29T16:12:21;24.05;;;7.25;;
68484;SDS011;55472;50.060;21.960;2023-01-29T16:14:48;19.48;;;6.40;;
68484;SDS011;55472;50.060;21.960;2023-01-29T16:17:20;24.60;;;7.93;;
68484;SDS011;55472;50.060;21.960;2023-01-29T16:19:55;20.52;;;7.25;;
68484;SDS011;55472;50.060;21.960;2023-01-29T16:22:28;20.10;;;7.77;;
68484;SDS011;55472;50.060;21.960;2023-01-29T16:25:03;24.02;;;8.68;;
68484;SDS011;55472;50.060;21.960;2023-01-29T16:27:38;24.40;;;7.03;;
68484;SDS011;55472;50.060;21.960;2023-01-29T16:30:08;23.10;;;7.47;;
68484;SDS011;55472;50.060;21.960;2023-01-29T16:32:39;22.52;;;7.40;;
68484;SDS011;55472;50.060;21.960;2023-01-29T16:35:06;23.03;;;8.53;;
68484;SDS011;55472;50.060;21.960;2023-01-29T16:37:39;24.38;;;8.32;;
68484;SDS011;55472;50.060;21.960;2023-01-29T16:40:26;15.65;;;5.78;;
68484;SDS011;55472;50.060;21.960;2023-01-29T16:45:41;22.25;;;7.63;;
68484;SDS011;55472;50.060;21.960;2023-01-29T16:48:37;24.23;;;8.47;;
68484;SDS011;55472;50.060;21.960;2023-01-29T16:51:20;21.90;;;8.10;;
68484;SDS011;55472;50.060;21.960;2023-01-29T16:54:11;19.23;;;7.00;;
68484;SDS011;55472;50.060;21.960;2023-01-29T16:56:43;21.33;;;7.88;;
68484;SDS011;55472;50.060;21.960;2023-01-29T16:59:15;20.60;;;6.85;;
68484;SDS011;55472;50.060;21.960;2023-01-29T17:01:47;25.40;;;7.87;;
68484;SDS011;55472;50.060;21.960;2023-01-29T17:04:14;21.90;;;7.80;;
68484;SDS011;55472;50.060;21.960;2023-01-29T17:06:44;26.25;;;8.45;;
68484;SDS011;55472;50.060;21.960;2023-01-29T17:09:20;29.05;;;9.65;;
68484;SDS011;55472;50.060;21.960;2023-01-29T17:11:53;20.27;;;7.43;;
68484;SDS011;55472;50.060;21.960;2023-01-29T17:14:23;20.57;;;7.07;;
68484;SDS011;55472;50.060;21.960;2023-01-29T17:17:01;30.63;;;10.20;;
68484;SDS011;55472;50.060;21.960;2023-01-29T17:19:37;27.48;;;8.80;;
68484;SDS011;55472;50.060;21.960;2023-01-29T17:22:04;24.70;;;8.60;;
68484;SDS011;55472;50.060;21.960;2023-01-29T17:24:33;23.63;;;8.27;;
68484;SDS011;55472;50.060;21.960;2023-01-29T17:26:59;29.53;;;9.77;;
68484;SDS011;55472;50.060;21.960;2023-01-29T17:29:27;39.85;;;12.80;;
68484;SDS011;55472;50.060;21.960;2023-01-29T17:31:55;32.42;;;10.07;;
68484;SDS011;55472;50.060;21.960;2023-01-29T17:34:24;29.58;;;10.45;;
68484;SDS011;55472;50.060;21.960;2023-01-29T17:36:51;29.75;;;9.50;;
68484;SDS011;55472;50.060;21.960;2023-01-29T17:39:18;32.43;;;10.03;;
68484;SDS011;55472;50.060;21.960;2023-01-29T17:41:48;25.35;;;8.70;;
68484;SDS011;55472;50.060;21.960;2023-01-29T17:44:20;25.17;;;8.82;;
68484;SDS011;55472;50.060;21.960;2023-01-29T17:46:47;27.02;;;9.68;;
68484;SDS011;55472;50.060;21.960;2023-01-29T17:49:18;34.33;;;10.23;;
68484;SDS011;55472;50.060;21.960;2023-01-29T17:51:45;34.83;;;11.27;;
68484;SDS011;55472;50.060;21.960;2023-01-29T17:54:13;34.83;;;12.13;;
68484;SDS011;55472;50.060;21.960;2023-01-29T17:56:40;35.55;;;10.90;;
68484;SDS011;55472;50.060;21.960;2023-01-29T17:59:12;38.38;;;12.98;;
68484;SDS011;55472;50.060;21.960;2023-01-29T18:01:45;50.30;;;15.07;;
68484;SDS011;55472;50.060;21.960;2023-01-29T18:04:12;38.33;;;13.47;;
68484;SDS011;55472;50.060;21.960;2023-01-29T18:06:40;50.60;;;17.88;;